Time;durP1;ratioP1;P1;durP2;ratioP2;P2;SDS_P1;SDS_P2;PMS_P1;PMS_P2;Temp;Humidity;BMP_temperature;BMP_pressure;BME280_temperature;BME280_humidity;BME280_pressure;Samples;Min_cycle;Max_cycle;Signal;HPM_P1;HPM_P2
2022/10/28 00:01:13;;;;;;;8.23;3.20;;;;;;;;;;4977312;28;20106;-83
2022/10/28 00:03:44;;;;;;;8.25;2.75;;;;;;;;;;4961289;28;20041;-83
2022/10/28 00:06:21;;;;;;;12.40;2.97;;;;;;;;;;4979444;28;20038;-84
2022/10/28 00:08:47;;;;;;;7.72;3.33;;;;;;;;;;4980377;28;20031;-82
2022/10/28 00:11:26;;;;;;;9.20;3.75;;;;;;;;;;4986251;28;20081;-83
2022/10/28 00:13:56;;;;;;;9.52;3.20;;;;;;;;;;4965329;28;20034;-83
2022/10/28 00:16:26;;;;;;;6.97;2.95;;;;;;;;;;4982420;28;20022;-82
2022/10/28 00:18:52;;;;;;;8.23;3.35;;;;;;;;;;4966165;28;20026;-81
2022/10/28 00:21:28;;;;;;;5.53;2.80;;;;;;;;;;4966719;28;20449;-83
2022/10/28 00:23:53;;;;;;;7.38;2.90;;;;;;;;;;4981220;28;20022;-84
2022/10/28 00:26:24;;;;;;;5.28;2.65;;;;;;;;;;4960093;28;20026;-83
2022/10/28 00:28:58;;;;;;;8.63;3.27;;;;;;;;;;4974803;28;21286;-83
2022/10/28 00:31:26;;;;;;;4.68;2.72;;;;;;;;;;4978333;28;20378;-83
2022/10/28 00:33:52;;;;;;;7.78;3.03;;;;;;;;;;4978628;28;20026;-83
2022/10/28 00:36:18;;;;;;;4.97;2.83;;;;;;;;;;4964772;28;20046;-82
2022/10/28 00:38:47;;;;;;;7.47;2.63;;;;;;;;;;4968310;28;20031;-83
2022/10/28 00:41:21;;;;;;;9.23;2.83;;;;;;;;;;4980810;28;20488;-84
2022/10/28 00:43:52;;;;;;;5.47;2.60;;;;;;;;;;4969762;28;20041;-80
2022/10/28 00:46:27;;;;;;;8.52;4.13;;;;;;;;;;4964206;28;20062;-81
2022/10/28 00:49:03;;;;;;;5.13;3.08;;;;;;;;;;4984579;28;20034;-80
2022/10/28 00:51:31;;;;;;;10.00;2.92;;;;;;;;;;4983269;28;20030;-82
2022/10/28 00:53:57;;;;;;;6.85;3.25;;;;;;;;;;4982298;28;20038;-81
2022/10/28 00:56:26;;;;;;;6.63;2.85;;;;;;;;;;4978031;28;20047;-81
2022/10/28 00:58:55;;;;;;;7.70;2.85;;;;;;;;;;4964735;28;20511;-81
2022/10/28 01:01:21;;;;;;;7.72;2.85;;;;;;;;;;4966015;28;20030;-83
2022/10/28 01:03:46;;;;;;;6.70;3.45;;;;;;;;;;4961917;28;20374;-83
2022/10/28 01:06:13;;;;;;;9.43;2.83;;;;;;;;;;4963153;28;20037;-81
2022/10/28 01:08:38;;;;;;;8.82;2.45;;;;;;;;;;4981311;28;20037;-82
2022/10/28 01:11:43;;;;;;;8.13;3.15;;;;;;;;;;4963941;28;20026;-81
2022/10/28 01:14:15;;;;;;;12.00;3.63;;;;;;;;;;4953810;28;20023;-82
2022/10/28 01:17:02;;;;;;;7.60;3.00;;;;;;;;;;4977541;28;20629;-82
2022/10/28 01:19:36;;;;;;;9.57;3.38;;;;;;;;;;4983856;28;20039;-83
2022/10/28 01:22:28;;;;;;;9.00;3.47;;;;;;;;;;4980854;28;20027;-82
2022/10/28 01:25:01;;;;;;;8.63;3.13;;;;;;;;;;4977327;28;20019;-81
2022/10/28 01:27:36;;;;;;;8.50;2.67;;;;;;;;;;4964882;28;20269;-81
2022/10/28 01:30:06;;;;;;;11.82;3.15;;;;;;;;;;4975444;28;20022;-82
2022/10/28 01:32:50;;;;;;;9.73;3.05;;;;;;;;;;4968534;28;20052;-81
2022/10/28 01:35:23;;;;;;;11.45;3.25;;;;;;;;;;4971905;28;20129;-81
2022/10/28 01:38:07;;;;;;;6.63;2.63;;;;;;;;;;4991321;28;20065;-80
2022/10/28 01:41:24;;;;;;;6.85;2.88;;;;;;;;;;4982057;28;20023;-80
2022/10/28 01:43:55;;;;;;;7.55;2.92;;;;;;;;;;4945663;28;20519;-81
2022/10/28 01:46:30;;;;;;;8.27;2.70;;;;;;;;;;4971926;28;20080;-83
2022/10/28 01:49:04;;;;;;;7.25;3.17;;;;;;;;;;4980901;28;20027;-81
2022/10/28 01:51:39;;;;;;;9.05;3.00;;;;;;;;;;4968963;28;20077;-81
2022/10/28 01:54:06;;;;;;;5.65;2.67;;;;;;;;;;4971345;28;20023;-82
2022/10/28 01:56:36;;;;;;;7.15;2.60;;;;;;;;;;4986582;28;20034;-81
2022/10/28 01:59:05;;;;;;;5.30;2.72;;;;;;;;;;4979210;28;20033;-81
2022/10/28 02:01:32;;;;;;;8.10;2.72;;;;;;;;;;4962547;28;20086;-82
2022/10/28 02:03:58;;;;;;;12.30;2.47;;;;;;;;;;4981661;28;20048;-81
2022/10/28 02:06:27;;;;;;;9.48;3.33;;;;;;;;;;4966556;28;20108;-82
2022/10/28 02:09:11;;;;;;;5.63;2.72;;;;;;;;;;4966501;28;20038;-81
2022/10/28 02:12:18;;;;;;;6.55;3.38;;;;;;;;;;4980151;28;20026;-81
2022/10/28 02:15:16;;;;;;;13.15;3.38;;;;;;;;;;4957552;28;20097;-81
2022/10/28 02:17:45;;;;;;;4.10;2.72;;;;;;;;;;4978007;28;20474;-82
2022/10/28 02:20:22;;;;;;;5.57;3.28;;;;;;;;;;4976884;28;20154;-81
2022/10/28 02:22:51;;;;;;;8.93;2.85;;;;;;;;;;4980892;28;20036;-81
2022/10/28 02:25:22;;;;;;;5.40;2.50;;;;;;;;;;4986493;28;20023;-82
2022/10/28 02:27:58;;;;;;;9.82;2.70;;;;;;;;;;4969354;28;20027;-81
2022/10/28 02:30:43;;;;;;;8.10;3.50;;;;;;;;;;4981058;28;20094;-81
2022/10/28 02:33:12;;;;;;;7.82;3.30;;;;;;;;;;4976725;28;20045;-81
2022/10/28 02:35:44;;;;;;;7.65;2.85;;;;;;;;;;4980290;28;20023;-81
2022/10/28 02:38:21;;;;;;;6.93;2.97;;;;;;;;;;4981275;28;20406;-82
2022/10/28 02:40:52;;;;;;;7.13;2.90;;;;;;;;;;4980387;28;20123;-83
2022/10/28 02:43:20;;;;;;;4.55;2.65;;;;;;;;;;4965413;28;20033;-80
2022/10/28 02:45:48;;;;;;;9.88;3.13;;;;;;;;;;4978787;28;20027;-82
2022/10/28 02:48:20;;;;;;;6.30;2.97;;;;;;;;;;4959419;28;20033;-81
2022/10/28 02:50:52;;;;;;;6.15;3.13;;;;;;;;;;4964548;28;20054;-81
2022/10/28 02:53:27;;;;;;;7.85;3.08;;;;;;;;;;4978459;28;20027;-81
2022/10/28 02:55:56;;;;;;;16.73;3.60;;;;;;;;;;4978917;28;20025;-81
2022/10/28 02:58:21;;;;;;;6.63;3.33;;;;;;;;;;4961218;28;20049;-82
2022/10/28 03:00:48;;;;;;;13.30;3.90;;;;;;;;;;4970544;28;20483;-80
2022/10/28 03:03:14;;;;;;;7.85;3.80;;;;;;;;;;4960732;28;20056;-82
2022/10/28 03:05:39;;;;;;;12.70;3.53;;;;;;;;;;4966992;28;20033;-82
2022/10/28 03:08:04;;;;;;;6.28;3.40;;;;;;;;;;4980344;28;20369;-81
2022/10/28 03:10:30;;;;;;;6.72;3.45;;;;;;;;;;4980025;28;20485;-81
2022/10/28 03:12:55;;;;;;;10.52;3.47;;;;;;;;;;4962863;28;20026;-81
2022/10/28 03:15:21;;;;;;;8.55;3.47;;;;;;;;;;4978053;28;20030;-82
2022/10/28 03:17:46;;;;;;;16.85;3.45;;;;;;;;;;4985904;28;20109;-82
2022/10/28 03:20:11;;;;;;;5.93;3.63;;;;;;;;;;4974262;28;20033;-81
2022/10/28 03:22:37;;;;;;;5.35;2.92;;;;;;;;;;4958737;28;20152;-81
2022/10/28 03:25:02;;;;;;;27.10;4.57;;;;;;;;;;4982658;28;20023;-81
2022/10/28 03:27:28;;;;;;;12.85;3.78;;;;;;;;;;4964195;28;20026;-81
2022/10/28 03:29:53;;;;;;;10.23;3.80;;;;;;;;;;4979720;28;20014;-82
2022/10/28 03:32:19;;;;;;;7.88;3.50;;;;;;;;;;4985857;28;20018;-82
2022/10/28 03:34:46;;;;;;;11.52;3.17;;;;;;;;;;4969632;28;20469;-82
2022/10/28 03:37:12;;;;;;;7.95;3.22;;;;;;;;;;4984748;28;20030;-82
2022/10/28 03:39:37;;;;;;;8.77;3.45;;;;;;;;;;4977398;28;20030;-82
2022/10/28 03:42:03;;;;;;;12.60;3.63;;;;;;;;;;4992975;28;20018;-82
2022/10/28 03:44:28;;;;;;;8.57;3.47;;;;;;;;;;4991237;28;20031;-82
2022/10/28 03:46:53;;;;;;;11.80;3.58;;;;;;;;;;4963537;28;20638;-82
2022/10/28 03:49:19;;;;;;;8.48;4.10;;;;;;;;;;4970855;28;20022;-82
2022/10/28 03:51:44;;;;;;;8.68;4.25;;;;;;;;;;4960701;28;20085;-82
2022/10/28 03:54:09;;;;;;;8.30;3.42;;;;;;;;;;4978883;28;20434;-82
2022/10/28 03:56:35;;;;;;;13.38;3.88;;;;;;;;;;4969256;28;20676;-82
2022/10/28 03:59:00;;;;;;;9.60;3.60;;;;;;;;;;4979864;28;20053;-82
2022/10/28 04:01:26;;;;;;;8.43;3.58;;;;;;;;;;4979388;28;20023;-82
2022/10/28 04:03:51;;;;;;;11.02;3.38;;;;;;;;;;4986748;28;20026;-82
2022/10/28 04:06:16;;;;;;;9.48;4.60;;;;;;;;;;4964752;28;20026;-82
2022/10/28 04:08:42;;;;;;;6.40;3.40;;;;;;;;;;4988078;28;20040;-82
2022/10/28 04:11:07;;;;;;;8.75;3.45;;;;;;;;;;4984720;28;20050;-82
2022/10/28 04:13:33;;;;;;;8.65;3.90;;;;;;;;;;4977783;28;20023;-83
2022/10/28 04:15:58;;;;;;;9.82;3.75;;;;;;;;;;4964246;28;20080;-82
2022/10/28 04:18:23;;;;;;;10.27;3.83;;;;;;;;;;4969898;28;20026;-82
2022/10/28 04:20:49;;;;;;;7.78;4.00;;;;;;;;;;4968344;28;20022;-83
2022/10/28 04:23:17;;;;;;;8.85;3.42;;;;;;;;;;4968042;28;20546;-82
2022/10/28 04:25:42;;;;;;;9.60;3.75;;;;;;;;;;4981234;28;20034;-82
2022/10/28 04:28:07;;;;;;;11.07;4.45;;;;;;;;;;4985081;28;20045;-82
2022/10/28 04:30:33;;;;;;;11.45;4.00;;;;;;;;;;4972705;28;20061;-82
2022/10/28 04:32:58;;;;;;;8.18;3.90;;;;;;;;;;4961331;28;20039;-83
2022/10/28 04:35:24;;;;;;;6.57;3.78;;;;;;;;;;4985679;28;20049;-82
2022/10/28 04:37:49;;;;;;;12.30;3.67;;;;;;;;;;4981059;28;20038;-82
2022/10/28 04:40:15;;;;;;;10.15;3.85;;;;;;;;;;4962680;28;20504;-83
2022/10/28 04:42:40;;;;;;;16.00;4.18;;;;;;;;;;4976957;28;20030;-82
2022/10/28 04:45:06;;;;;;;10.38;3.60;;;;;;;;;;4962653;28;20488;-82
2022/10/28 04:47:32;;;;;;;10.90;4.18;;;;;;;;;;4976793;28;20111;-82
2022/10/28 04:49:57;;;;;;;9.55;3.58;;;;;;;;;;4958487;28;20501;-82
2022/10/28 04:52:22;;;;;;;9.68;3.88;;;;;;;;;;4984545;28;20023;-82
2022/10/28 04:54:48;;;;;;;7.50;3.85;;;;;;;;;;4986465;28;20088;-82
2022/10/28 04:57:13;;;;;;;12.45;3.85;;;;;;;;;;4981592;28;20635;-82
2022/10/28 04:59:38;;;;;;;11.88;3.65;;;;;;;;;;4980936;28;20033;-82
2022/10/28 05:02:04;;;;;;;13.35;3.65;;;;;;;;;;4983770;28;20038;-84
2022/10/28 05:04:29;;;;;;;7.55;3.33;;;;;;;;;;4999439;28;20049;-83
2022/10/28 05:06:54;;;;;;;14.13;5.03;;;;;;;;;;4986493;28;20042;-82
2022/10/28 05:09:20;;;;;;;11.88;4.65;;;;;;;;;;4988740;28;20043;-82
2022/10/28 05:11:45;;;;;;;14.32;4.20;;;;;;;;;;4991657;28;20061;-82
2022/10/28 05:14:10;;;;;;;9.88;4.03;;;;;;;;;;4970947;28;20069;-81
2022/10/28 05:16:36;;;;;;;12.70;3.78;;;;;;;;;;4968100;28;20031;-81
2022/10/28 05:19:01;;;;;;;12.15;3.55;;;;;;;;;;4988397;28;20029;-82
2022/10/28 05:21:27;;;;;;;7.80;4.22;;;;;;;;;;4965924;28;20030;-82
2022/10/28 05:23:52;;;;;;;7.40;3.03;;;;;;;;;;4978417;28;20035;-81
2022/10/28 05:26:18;;;;;;;10.15;3.22;;;;;;;;;;4960644;28;20041;-81
2022/10/28 05:28:43;;;;;;;12.63;3.92;;;;;;;;;;4964462;28;20038;-82
2022/10/28 05:31:09;;;;;;;5.95;2.80;;;;;;;;;;4981156;28;20446;-81
2022/10/28 05:33:34;;;;;;;8.40;3.70;;;;;;;;;;4960608;28;20039;-82
2022/10/28 05:36:00;;;;;;;7.97;3.22;;;;;;;;;;4966132;28;20409;-84
2022/10/28 05:38:25;;;;;;;7.53;3.72;;;;;;;;;;4979605;28;20038;-81
2022/10/28 05:40:51;;;;;;;13.10;4.00;;;;;;;;;;4969458;28;20535;-82
2022/10/28 05:43:16;;;;;;;10.75;3.35;;;;;;;;;;4975666;28;20019;-82
2022/10/28 05:45:41;;;;;;;12.48;3.78;;;;;;;;;;4979016;28;20800;-83
2022/10/28 05:48:07;;;;;;;7.47;3.75;;;;;;;;;;4977330;28;20046;-80
2022/10/28 05:50:33;;;;;;;10.25;3.50;;;;;;;;;;4967074;28;20029;-82
2022/10/28 05:52:58;;;;;;;10.77;3.50;;;;;;;;;;4964702;28;20054;-83
2022/10/28 05:55:27;;;;;;;8.00;3.20;;;;;;;;;;4984961;28;20027;-79
2022/10/28 05:57:53;;;;;;;10.30;3.38;;;;;;;;;;4986754;28;20040;-81
2022/10/28 06:00:21;;;;;;;8.95;3.38;;;;;;;;;;4984530;28;20030;-81
2022/10/28 06:02:47;;;;;;;7.45;3.05;;;;;;;;;;4986080;28;20112;-83
2022/10/28 06:05:13;;;;;;;7.28;3.20;;;;;;;;;;4985559;28;20082;-83
2022/10/28 06:07:39;;;;;;;15.10;3.88;;;;;;;;;;4975371;28;20553;-83
2022/10/28 06:10:06;;;;;;;7.35;3.35;;;;;;;;;;4981945;28;20106;-82
2022/10/28 06:12:32;;;;;;;12.50;3.33;;;;;;;;;;4980126;28;20041;-85
2022/10/28 06:14:57;;;;;;;8.82;3.58;;;;;;;;;;4996063;23;20041;-83
2022/10/28 06:17:24;;;;;;;7.65;2.97;;;;;;;;;;5046127;28;20089;-82
2022/10/28 06:19:49;;;;;;;6.25;3.13;;;;;;;;;;5046181;28;20084;-85
2022/10/28 06:22:15;;;;;;;12.18;3.70;;;;;;;;;;5028534;28;20021;-86
2022/10/28 06:24:40;;;;;;;15.18;3.08;;;;;;;;;;5045624;28;20037;-86
2022/10/28 06:27:06;;;;;;;9.23;3.83;;;;;;;;;;5047833;28;20045;-87
2022/10/28 06:29:32;;;;;;;6.55;3.30;;;;;;;;;;5049560;28;20074;-85
2022/10/28 06:31:57;;;;;;;8.23;3.35;;;;;;;;;;5049795;28;20041;-85
2022/10/28 06:34:22;;;;;;;6.70;3.10;;;;;;;;;;5050599;28;20022;-86
2022/10/28 06:36:48;;;;;;;6.97;3.33;;;;;;;;;;5050158;28;20311;-84
2022/10/28 06:39:13;;;;;;;6.25;3.15;;;;;;;;;;5032892;28;20021;-84
2022/10/28 06:41:38;;;;;;;11.27;3.40;;;;;;;;;;5045321;28;20021;-85
2022/10/28 06:44:04;;;;;;;8.25;3.50;;;;;;;;;;5019213;28;20475;-86
2022/10/28 06:46:29;;;;;;;15.02;3.40;;;;;;;;;;5032633;28;20503;-83
2022/10/28 06:48:55;;;;;;;18.98;3.75;;;;;;;;;;5038205;28;20029;-85
2022/10/28 06:51:22;;;;;;;8.30;3.72;;;;;;;;;;5021354;28;20033;-88
2022/10/28 06:53:49;;;;;;;13.60;3.55;;;;;;;;;;5039418;28;20034;-88
2022/10/28 06:56:14;;;;;;;9.95;3.50;;;;;;;;;;5039371;28;20506;-88
2022/10/28 06:58:40;;;;;;;5.20;3.15;;;;;;;;;;5039747;28;20037;-87
2022/10/28 07:01:05;;;;;;;12.98;3.40;;;;;;;;;;5041131;28;20021;-86
2022/10/28 07:03:31;;;;;;;8.65;3.70;;;;;;;;;;5020024;28;20483;-86
2022/10/28 07:05:57;;;;;;;7.93;3.80;;;;;;;;;;5036787;28;20021;-86
2022/10/28 07:08:23;;;;;;;6.22;3.08;;;;;;;;;;5030973;28;20045;-87
2022/10/28 07:10:56;;;;;;;14.63;3.47;;;;;;;;;;5034611;28;20057;-87
2022/10/28 07:13:26;;;;;;;7.10;3.22;;;;;;;;;;5021329;28;20034;-86
2022/10/28 07:15:56;;;;;;;5.05;3.20;;;;;;;;;;5013428;28;20085;-87
2022/10/28 07:18:23;;;;;;;8.25;3.10;;;;;;;;;;5038294;28;20289;-86
2022/10/28 07:20:49;;;;;;;7.85;3.45;;;;;;;;;;5038895;28;20025;-87
2022/10/28 07:23:14;;;;;;;12.40;3.38;;;;;;;;;;5026967;28;20414;-87
2022/10/28 07:25:43;;;;;;;9.68;3.35;;;;;;;;;;5001985;28;20037;-87
2022/10/28 07:28:08;;;;;;;13.35;3.67;;;;;;;;;;5020416;28;20464;-87
2022/10/28 07:30:34;;;;;;;7.80;3.15;;;;;;;;;;5038107;28;20035;-86
2022/10/28 07:33:00;;;;;;;6.75;3.10;;;;;;;;;;5038312;28;20438;-86
2022/10/28 07:35:29;;;;;;;8.35;3.17;;;;;;;;;;5038593;28;20103;-87
2022/10/28 07:37:56;;;;;;;7.80;3.25;;;;;;;;;;5033316;28;20368;-87
2022/10/28 07:40:22;;;;;;;8.02;3.33;;;;;;;;;;5019359;28;20021;-87
2022/10/28 07:42:47;;;;;;;16.30;3.55;;;;;;;;;;5035281;28;20064;-87
2022/10/28 07:45:13;;;;;;;11.25;3.13;;;;;;;;;;5013018;28;20054;-87
2022/10/28 07:47:38;;;;;;;7.20;3.00;;;;;;;;;;5035172;28;20026;-85
2022/10/28 07:50:05;;;;;;;8.27;2.88;;;;;;;;;;5047066;28;20096;-86
2022/10/28 07:52:30;;;;;;;11.23;3.13;;;;;;;;;;5048524;28;20021;-86
2022/10/28 07:54:56;;;;;;;7.10;3.17;;;;;;;;;;5049546;28;20078;-87
2022/10/28 07:57:21;;;;;;;5.68;3.13;;;;;;;;;;5036411;28;20146;-87
2022/10/28 07:59:46;;;;;;;9.25;3.20;;;;;;;;;;5033384;28;20029;-86
2022/10/28 08:02:21;;;;;;;9.30;3.33;;;;;;;;;;5031098;28;20044;-86
2022/10/28 08:04:47;;;;;;;6.65;3.17;;;;;;;;;;5037561;28;20013;-87
2022/10/28 08:07:13;;;;;;;9.27;3.03;;;;;;;;;;5037591;28;20017;-85
2022/10/28 08:09:39;;;;;;;10.50;3.58;;;;;;;;;;5016558;28;20216;-88
2022/10/28 08:12:11;;;;;;;12.73;3.28;;;;;;;;;;5039227;28;20681;-87
2022/10/28 08:14:36;;;;;;;12.85;3.35;;;;;;;;;;5037392;28;20022;-87
2022/10/28 08:17:02;;;;;;;11.20;3.20;;;;;;;;;;5035893;28;20096;-85
2022/10/28 08:19:30;;;;;;;8.18;2.92;;;;;;;;;;5035903;28;20034;-85
2022/10/28 08:21:59;;;;;;;7.75;3.22;;;;;;;;;;5033065;28;20025;-87
2022/10/28 08:24:24;;;;;;;11.50;2.90;;;;;;;;;;5020794;28;20029;-86
2022/10/28 08:26:49;;;;;;;8.98;3.00;;;;;;;;;;5035386;28;20025;-86
2022/10/28 08:29:15;;;;;;;18.70;3.53;;;;;;;;;;5035588;28;20040;-86
2022/10/28 08:31:40;;;;;;;8.75;2.70;;;;;;;;;;5041414;28;20025;-85
2022/10/28 08:34:06;;;;;;;11.02;3.13;;;;;;;;;;5048424;28;20032;-86
2022/10/28 08:36:32;;;;;;;10.10;2.97;;;;;;;;;;5047676;28;20026;-86
2022/10/28 08:39:01;;;;;;;7.63;2.63;;;;;;;;;;5047672;28;20036;-86
2022/10/28 08:41:43;;;;;;;9.63;3.40;;;;;;;;;;5040907;28;20018;-86
2022/10/28 08:44:27;;;;;;;8.40;3.00;;;;;;;;;;5033621;28;20073;-86
2022/10/28 08:47:15;;;;;;;7.20;3.35;;;;;;;;;;5039558;28;20025;-87
2022/10/28 08:49:42;;;;;;;8.05;2.95;;;;;;;;;;5039580;28;20098;-86
2022/10/28 08:52:33;;;;;;;5.55;2.75;;;;;;;;;;5041794;28;20029;-86
2022/10/28 08:55:06;;;;;;;11.57;2.90;;;;;;;;;;5019760;28;20033;-88
2022/10/28 08:58:04;;;;;;;9.13;2.95;;;;;;;;;;5040152;28;20028;-85
2022/10/28 09:00:32;;;;;;;11.13;2.88;;;;;;;;;;5028977;28;20073;-85
2022/10/28 09:03:10;;;;;;;11.63;3.28;;;;;;;;;;5042035;28;20021;-85
2022/10/28 09:05:37;;;;;;;10.57;3.85;;;;;;;;;;5039607;28;20025;-84
2022/10/28 09:08:03;;;;;;;6.63;3.45;;;;;;;;;;5034375;28;20029;-85
2022/10/28 09:10:50;;;;;;;8.15;3.70;;;;;;;;;;5000639;28;20096;-86
2022/10/28 09:13:21;;;;;;;9.48;3.70;;;;;;;;;;5018292;28;20030;-85
2022/10/28 09:16:05;;;;;;;6.65;3.33;;;;;;;;;;5031814;28;20025;-85
2022/10/28 09:18:46;;;;;;;10.20;4.18;;;;;;;;;;5049798;28;20388;-84
2022/10/28 09:21:19;;;;;;;10.52;3.10;;;;;;;;;;5056443;28;20247;-85
2022/10/28 09:23:57;;;;;;;7.97;3.30;;;;;;;;;;5043996;28;20033;-86
2022/10/28 09:26:35;;;;;;;6.38;3.00;;;;;;;;;;5026671;28;20582;-84
2022/10/28 09:29:30;;;;;;;10.32;3.40;;;;;;;;;;5042157;28;20029;-85
2022/10/28 09:32:05;;;;;;;8.07;3.08;;;;;;;;;;5027121;28;20044;-84
2022/10/28 09:34:57;;;;;;;9.30;3.42;;;;;;;;;;5041732;28;20030;-86
2022/10/28 09:37:39;;;;;;;9.25;3.47;;;;;;;;;;5039594;28;20080;-85
2022/10/28 09:40:14;;;;;;;17.92;4.50;;;;;;;;;;5034794;28;20068;-85
2022/10/28 09:43:13;;;;;;;10.15;3.28;;;;;;;;;;5014902;28;20018;-84
2022/10/28 09:45:44;;;;;;;10.75;3.60;;;;;;;;;;5036098;28;20380;-86
2022/10/28 09:48:19;;;;;;;10.52;3.00;;;;;;;;;;5036498;28;20049;-85
2022/10/28 09:50:48;;;;;;;20.55;4.05;;;;;;;;;;5032906;28;20037;-85
2022/10/28 09:53:30;;;;;;;6.68;3.03;;;;;;;;;;5039353;28;20058;-84
2022/10/28 09:55:55;;;;;;;9.25;3.67;;;;;;;;;;5038841;28;20033;-85
2022/10/28 09:58:27;;;;;;;9.55;3.55;;;;;;;;;;5036396;28;20028;-87
2022/10/28 10:00:52;;;;;;;9.45;3.53;;;;;;;;;;5037094;28;20080;-86
2022/10/28 10:03:18;;;;;;;12.57;3.60;;;;;;;;;;5037268;28;20529;-87
2022/10/28 10:05:47;;;;;;;9.88;3.80;;;;;;;;;;5017759;28;20029;-85
2022/10/28 10:08:16;;;;;;;12.68;3.38;;;;;;;;;;5034858;28;20035;-85
2022/10/28 10:11:20;;;;;;;10.23;3.50;;;;;;;;;;5036213;28;20033;-85
2022/10/28 10:13:46;;;;;;;8.07;3.08;;;;;;;;;;5004016;28;20033;-86
2022/10/28 10:16:38;;;;;;;15.90;3.92;;;;;;;;;;5033443;28;20018;-84
2022/10/28 10:19:10;;;;;;;15.88;3.67;;;;;;;;;;5019129;28;20112;-85
2022/10/28 10:21:56;;;;;;;11.95;3.53;;;;;;;;;;5001139;28;20056;-86
2022/10/28 10:24:32;;;;;;;11.00;3.90;;;;;;;;;;5000568;28;20045;-85
2022/10/28 10:27:00;;;;;;;12.25;4.28;;;;;;;;;;5001481;28;20038;-84
2022/10/28 10:29:27;;;;;;;9.00;3.40;;;;;;;;;;5033699;28;20025;-85
2022/10/28 10:32:07;;;;;;;10.70;3.60;;;;;;;;;;5028141;28;20030;-86
2022/10/28 10:34:32;;;;;;;11.75;3.35;;;;;;;;;;5017507;28;20033;-86
2022/10/28 10:36:58;;;;;;;10.13;3.38;;;;;;;;;;5033195;28;20033;-84
2022/10/28 10:39:34;;;;;;;10.38;3.25;;;;;;;;;;5018856;28;20033;-85
2022/10/28 10:41:59;;;;;;;7.70;3.25;;;;;;;;;;5037508;28;20025;-85
2022/10/28 10:44:33;;;;;;;12.30;3.42;;;;;;;;;;5039111;28;20074;-86
2022/10/28 10:46:58;;;;;;;17.42;4.07;;;;;;;;;;5039345;28;20033;-85
2022/10/28 10:49:23;;;;;;;10.07;3.50;;;;;;;;;;5039849;28;20029;-85
2022/10/28 10:51:51;;;;;;;12.32;3.10;;;;;;;;;;5040072;28;20021;-83
2022/10/28 10:54:18;;;;;;;6.68;2.90;;;;;;;;;;5040015;28;20084;-87
2022/10/28 10:56:46;;;;;;;8.88;3.03;;;;;;;;;;5039145;28;20037;-86
2022/10/28 10:59:28;;;;;;;12.10;3.22;;;;;;;;;;5033797;28;20104;-86
2022/10/28 11:01:56;;;;;;;9.90;3.22;;;;;;;;;;5001287;28;20034;-86
2022/10/28 11:04:25;;;;;;;10.32;3.35;;;;;;;;;;5032171;28;20041;-85
2022/10/28 11:06:53;;;;;;;13.50;3.47;;;;;;;;;;5038745;28;20025;-85
2022/10/28 11:09:30;;;;;;;10.57;3.40;;;;;;;;;;5028399;28;20092;-86
2022/10/28 11:12:13;;;;;;;5.88;2.40;;;;;;;;;;5041921;28;20022;-86
2022/10/28 11:14:51;;;;;;;10.45;3.47;;;;;;;;;;5040333;28;20029;-83
2022/10/28 11:17:29;;;;;;;7.63;2.58;;;;;;;;;;5029101;28;20041;-86
2022/10/28 11:19:56;;;;;;;11.15;3.17;;;;;;;;;;5000878;28;20120;-86
2022/10/28 11:22:34;;;;;;;9.00;2.85;;;;;;;;;;5019783;28;20033;-86
2022/10/28 11:25:24;;;;;;;9.68;2.97;;;;;;;;;;5005562;28;20444;-86
2022/10/28 11:28:25;;;;;;;8.60;3.50;;;;;;;;;;5022868;28;20026;-86
2022/10/28 11:31:21;;;;;;;12.57;4.03;;;;;;;;;;5034754;28;20427;-86
2022/10/28 11:37:08;;;;;;;9.55;3.22;;;;;;;;;;5174158;23;20053;-86
2022/10/28 11:39:42;;;;;;;9.00;3.28;;;;;;;;;;5027492;28;20056;-87
2022/10/28 11:42:13;;;;;;;9.27;3.22;;;;;;;;;;5032454;28;20499;-87
2022/10/28 11:44:51;;;;;;;5.30;2.95;;;;;;;;;;5020330;28;20029;-86
2022/10/28 11:47:35;;;;;;;7.53;3.10;;;;;;;;;;5021921;28;20026;-85
2022/10/28 11:50:42;;;;;;;6.75;2.85;;;;;;;;;;5040302;28;20068;-86
2022/10/28 11:53:44;;;;;;;8.55;2.90;;;;;;;;;;5018138;28;20447;-84
2022/10/28 11:56:32;;;;;;;12.85;3.38;;;;;;;;;;5001221;28;20026;-85
2022/10/28 11:59:14;;;;;;;12.95;3.33;;;;;;;;;;5036936;28;20061;-85
2022/10/28 12:02:13;;;;;;;14.65;3.15;;;;;;;;;;5017485;28;20049;-85
2022/10/28 12:04:59;;;;;;;7.15;3.28;;;;;;;;;;5018438;28;20026;-84
2022/10/28 12:07:57;;;;;;;9.15;2.22;;;;;;;;;;5031170;28;20017;-84
2022/10/28 12:10:29;;;;;;;8.55;2.65;;;;;;;;;;5025966;28;20021;-86
2022/10/28 12:13:02;;;;;;;8.35;2.45;;;;;;;;;;5019858;28;20037;-86
2022/10/28 12:15:43;;;;;;;7.68;2.60;;;;;;;;;;5028983;28;20118;-86
2022/10/28 12:18:22;;;;;;;6.25;2.75;;;;;;;;;;5030843;28;20056;-87
2022/10/28 12:20:54;;;;;;;7.30;2.55;;;;;;;;;;5037956;28;20029;-85
2022/10/28 12:23:22;;;;;;;7.43;2.70;;;;;;;;;;5020287;28;20116;-86
2022/10/28 12:25:54;;;;;;;5.40;2.20;;;;;;;;;;5020789;28;20029;-86
2022/10/28 12:28:29;;;;;;;6.97;1.92;;;;;;;;;;5038155;28;20025;-86
2022/10/28 12:30:59;;;;;;;7.05;2.28;;;;;;;;;;5020551;28;20082;-86
2022/10/28 12:33:41;;;;;;;6.82;2.35;;;;;;;;;;5021122;28;20029;-86
2022/10/28 12:36:06;;;;;;;;;;;;;;;;;;5035045;28;20105;-86
2022/10/28 12:39:02;;;;;;;7.93;3.08;;;;;;;;;;5041255;28;19909;-86
2022/10/28 12:42:08;;;;;;;9.45;2.22;;;;;;;;;;5045957;28;20021;-87
2022/10/28 12:44:36;;;;;;;5.57;2.47;;;;;;;;;;5037886;28;20026;-87
2022/10/28 12:47:12;;;;;;;4.68;2.70;;;;;;;;;;5033984;28;20081;-86
2022/10/28 12:49:38;;;;;;;11.10;2.72;;;;;;;;;;5026553;28;20030;-87
2022/10/28 12:52:23;;;;;;;9.65;2.78;;;;;;;;;;5018656;28;20026;-86
2022/10/28 12:55:26;;;;;;;4.75;2.17;;;;;;;;;;5019791;28;20565;-85
2022/10/28 12:58:02;;;;;;;5.53;2.25;;;;;;;;;;5016313;28;20045;-87
2022/10/28 13:00:42;;;;;;;5.15;1.70;;;;;;;;;;5043109;28;20403;-86
2022/10/28 13:03:12;;;;;;;7.60;2.13;;;;;;;;;;5034259;28;20068;-87
2022/10/28 13:05:41;;;;;;;9.07;2.45;;;;;;;;;;5020084;28;20014;-87
2022/10/28 13:08:19;;;;;;;7.20;2.35;;;;;;;;;;5022812;28;20099;-86
2022/10/28 13:10:57;;;;;;;5.60;2.35;;;;;;;;;;5029286;28;20029;-86
2022/10/28 13:13:56;;;;;;;12.15;2.58;;;;;;;;;;5030235;28;20041;-86
2022/10/28 13:16:49;;;;;;;7.20;2.38;;;;;;;;;;5030955;28;20120;-86
2022/10/28 13:19:45;;;;;;;9.50;2.78;;;;;;;;;;5020859;28;20045;-86
2022/10/28 13:22:39;;;;;;;5.18;2.28;;;;;;;;;;5037999;28;20033;-85
2022/10/28 13:25:46;;;;;;;7.85;3.17;;;;;;;;;;5050687;23;20033;-86
2022/10/28 13:28:18;;;;;;;10.98;2.50;;;;;;;;;;5027765;28;20045;-87
2022/10/28 13:30:58;;;;;;;5.43;2.20;;;;;;;;;;5030541;28;20065;-85
2022/10/28 13:33:26;;;;;;;8.07;2.42;;;;;;;;;;5021287;28;20041;-86
2022/10/28 13:35:54;;;;;;;9.38;2.78;;;;;;;;;;5026693;28;20089;-86
2022/10/28 13:38:25;;;;;;;14.15;2.97;;;;;;;;;;5041229;28;20545;-86
2022/10/28 13:40:56;;;;;;;7.67;2.63;;;;;;;;;;5050326;28;20055;-86
2022/10/28 13:43:48;;;;;;;7.78;2.35;;;;;;;;;;5040920;28;20273;-86
2022/10/28 13:46:52;;;;;;;13.40;2.70;;;;;;;;;;5027614;28;20049;-86
2022/10/28 13:49:23;;;;;;;7.68;2.47;;;;;;;;;;5026970;28;20045;-86
2022/10/28 13:51:51;;;;;;;13.00;2.83;;;;;;;;;;5029520;28;20032;-87
2022/10/28 13:54:31;;;;;;;10.48;2.80;;;;;;;;;;5041873;28;20045;-87
2022/10/28 13:57:22;;;;;;;12.52;3.20;;;;;;;;;;5041897;28;20029;-86
2022/10/28 13:59:53;;;;;;;7.73;2.60;;;;;;;;;;5033140;28;20041;-87
2022/10/28 14:02:40;;;;;;;5.68;2.67;;;;;;;;;;5035176;28;20285;-88
2022/10/28 14:05:10;;;;;;;7.78;2.42;;;;;;;;;;5012778;28;20025;-89
2022/10/28 14:07:58;;;;;;;14.23;2.75;;;;;;;;;;5033960;28;20043;-85
2022/10/28 14:10:25;;;;;;;7.75;2.25;;;;;;;;;;5032660;28;20037;-85
2022/10/28 14:12:59;;;;;;;6.10;2.60;;;;;;;;;;5032347;28;20485;-87
2022/10/28 14:15:34;;;;;;;8.05;2.63;;;;;;;;;;5009042;28;20033;-86
2022/10/28 14:18:03;;;;;;;11.32;2.83;;;;;;;;;;5027598;28;20040;-86
2022/10/28 14:20:31;;;;;;;13.80;2.75;;;;;;;;;;5008400;28;20026;-85
2022/10/28 14:22:57;;;;;;;6.40;2.70;;;;;;;;;;5025852;28;20037;-86
2022/10/28 14:25:42;;;;;;;6.68;3.15;;;;;;;;;;5019920;28;20040;-86
2022/10/28 14:28:26;;;;;;;10.60;2.67;;;;;;;;;;5020291;28;20398;-85
2022/10/28 14:31:07;;;;;;;5.35;2.90;;;;;;;;;;5036647;28;20044;-86
2022/10/28 14:33:42;;;;;;;6.22;2.30;;;;;;;;;;5035201;28;20063;-86
2022/10/28 14:36:17;;;;;;;12.75;3.33;;;;;;;;;;5035316;28;20033;-86
2022/10/28 14:39:19;;;;;;;11.15;2.65;;;;;;;;;;5040284;28;20034;-86
2022/10/28 14:41:54;;;;;;;10.25;3.42;;;;;;;;;;5029016;28;20117;-86
2022/10/28 14:44:37;;;;;;;5.28;2.47;;;;;;;;;;5037815;28;20029;-85
2022/10/28 14:47:40;;;;;;;6.55;3.08;;;;;;;;;;5037069;28;20116;-84
2022/10/28 14:50:29;;;;;;;10.20;3.38;;;;;;;;;;5024764;28;20475;-85
2022/10/28 14:52:56;;;;;;;9.30;3.05;;;;;;;;;;5035202;28;20089;-86
2022/10/28 14:55:28;;;;;;;9.27;3.22;;;;;;;;;;5036793;28;20123;-86
2022/10/28 14:58:20;;;;;;;13.07;3.53;;;;;;;;;;5036478;28;20418;-85
2022/10/28 15:01:00;;;;;;;15.00;3.33;;;;;;;;;;5034471;28;20535;-86
2022/10/28 15:03:26;;;;;;;8.40;3.47;;;;;;;;;;5022839;28;20450;-85
2022/10/28 15:05:51;;;;;;;9.13;3.40;;;;;;;;;;5036731;28;20077;-86
2022/10/28 15:08:18;;;;;;;9.05;3.15;;;;;;;;;;5024538;28;20101;-86
2022/10/28 15:10:47;;;;;;;6.85;2.75;;;;;;;;;;5019645;28;20037;-85
2022/10/28 15:13:16;;;;;;;8.63;3.85;;;;;;;;;;5038989;28;20064;-86